CheckWX is a tool to help pilots better visualize weather data.  It is not intended as a substitute for an official pre-flight weather briefing.

08:52:27 UTC

KSOP METAR
Moore County Airport
Pinehurst/Southern Pines, North Carolina, USA
Current

56 mins ago

KSOP 180756Z AUTO 25005KT 10SM CLR 24/22 A3006 RMK AO2 SLP186 T02390222 PWINO $
Observed
Jun-18 @ 07:56 UTC
Wind
  • 250° at 5 KTS
Visibility
10 SM
Flight Rules
VFR
Cloud Levels
  • Clear skies
Temperature
24°C / 75°F
Dewpoint
22°C / 72°F
Humidity
89%
Altimeter
30.06" Hg
Pressure
1017.92 hPa
Previous

2 hours ago

KSOP 180656Z AUTO 22008KT 10SM CLR 24/22 A3006 RMK AO2 SLP185 T02440222 PWINO $
Observed
Jun-18 @ 06:56 UTC
Wind
  • 220° at 8 KTS
Visibility
10 SM
Flight Rules
VFR
Cloud Levels
  • Clear skies
Temperature
24°C / 75°F
Dewpoint
22°C / 72°F
Humidity
89%
Altimeter
30.06" Hg
Pressure
1017.92 hPa
Previous

3 hours ago

KSOP 180556Z AUTO 21008KT 10SM CLR 25/23 A3006 RMK AO2 SLP186 T02500228 10300 20250 50000 PWINO $
Observed
Jun-18 @ 05:56 UTC
Wind
  • 210° at 8 KTS
Visibility
10 SM
Flight Rules
VFR
Cloud Levels
  • Clear skies
Temperature
25°C / 77°F
Dewpoint
23°C / 73°F
Humidity
89%
Altimeter
30.06" Hg
Pressure
1017.92 hPa